Terminal Aerodrome Forecast
Issued by NWS Charleston, SC

Home | Current Version | Previous Version | Text Only | Print | Product List | Glossary On
Versions: 1 2 3 4 5 6 7 8 9 10 11 12 13 14 15 16 17 18 19 20 21 22
000
FTUS42 KCHS 301146
TAFCHS
TAF
KCHS 301146Z 3012/0112 24009KT P6SM SCT250
     FM301900 21013G18KT P6SM SCT050
     FM010000 22009KT P6SM SCT040 BKN150=

USA.gov is the U.S. government's official web portal to all federal, state and local government web resources and services.